Morton, Washington
Current Conditions -  °F | °C
As of 5:35 PM on Tuesday 27 Jan 2015 (Local Time) from KCLS Reporting Station
Overcast Overcast  
Wind Chill: 52°   Ceiling: 2500
Heat Index: 52°   Visibility: 10mi
Dew Point: 50°   Wind: 0mph
Humidity: 94%   Direction: NA
Pressure: 30.16"   Gusts: NA
Location:  46.56°N, 122.28°W
Report Text: KCLS 280135Z AUTO 00000KT 10SM BKN025 OVC036 11/10 A3016 RMK AO2
Loading
Personal Weather Stations






























Interactive Weather Map New forecast layout! Learn more

10-Day Weather Forecast

Advertisements
Track Severe Weather on mobile